createdAt,value
2023-01-21T00:00:26.145Z,15.60
2023-01-21T00:01:26.123Z,14.70
2023-01-21T00:02:26.202Z,14.70
2023-01-21T00:03:26.168Z,15.70
2023-01-21T00:04:26.105Z,15.20
2023-01-21T00:05:26.103Z,14.80
2023-01-21T00:06:26.095Z,14.20
2023-01-21T00:07:26.102Z,14.50
2023-01-21T00:08:26.104Z,14.10
2023-01-21T00:09:26.067Z,13.80
2023-01-21T00:10:26.069Z,15.20
2023-01-21T00:11:26.057Z,13.90
2023-01-21T00:12:26.049Z,14.20
2023-01-21T00:13:26.042Z,14.70
2023-01-21T00:14:26.066Z,14.40
2023-01-21T00:15:26.185Z,14.00
2023-01-21T00:16:26.023Z,14.10
2023-01-21T00:17:26.010Z,15.00
2023-01-21T00:18:26.004Z,14.90
2023-01-21T00:19:26.024Z,14.50
2023-01-21T00:20:25.992Z,14.30
2023-01-21T00:21:25.996Z,15.00
2023-01-21T00:22:25.979Z,15.50
2023-01-21T00:23:25.966Z,19.70
2023-01-21T00:24:25.986Z,17.90
2023-01-21T00:25:25.945Z,20.60
2023-01-21T00:26:25.964Z,21.50
2023-01-21T00:27:25.943Z,22.00
2023-01-21T00:28:25.928Z,22.60
2023-01-21T00:29:25.947Z,21.70
2023-01-21T00:30:25.919Z,19.90
2023-01-21T00:31:25.991Z,21.30
2023-01-21T00:32:25.902Z,21.10
2023-01-21T00:33:25.885Z,21.10
2023-01-21T00:34:25.920Z,18.30
2023-01-21T00:35:25.874Z,17.60
2023-01-21T00:36:25.864Z,17.30
2023-01-21T00:37:25.853Z,19.80
2023-01-21T00:38:25.845Z,17.90
2023-01-21T00:39:25.878Z,18.00
2023-01-21T00:40:25.838Z,19.10
2023-01-21T00:41:25.833Z,20.40
2023-01-21T00:42:25.825Z,20.80
2023-01-21T00:43:25.816Z,21.50
2023-01-21T00:44:25.836Z,20.80
2023-01-21T00:45:25.798Z,22.00
2023-01-21T00:46:25.858Z,21.40
2023-01-21T00:47:25.787Z,21.30
2023-01-21T00:48:25.795Z,21.10
2023-01-21T00:49:25.793Z,22.10
2023-01-21T00:50:25.761Z,21.60
2023-01-21T00:51:25.760Z,22.10
2023-01-21T00:52:25.751Z,21.30
2023-01-21T00:53:25.742Z,21.80
2023-01-21T00:54:25.761Z,22.80
2023-01-21T00:55:25.726Z,23.90
2023-01-21T00:56:25.721Z,24.00
2023-01-21T00:57:25.708Z,24.00
2023-01-21T00:58:25.725Z,23.70
2023-01-21T00:59:25.735Z,21.10
2023-01-21T01:00:25.694Z,22.70
2023-01-21T01:01:25.744Z,23.90
2023-01-21T01:02:25.712Z,22.10
2023-01-21T01:03:25.686Z,22.50
2023-01-21T01:04:25.691Z,22.50
2023-01-21T01:05:25.655Z,21.20
2023-01-21T01:06:25.647Z,19.90
2023-01-21T01:07:25.633Z,18.30
2023-01-21T01:08:26.635Z,16.40
2023-01-21T01:09:25.659Z,15.90
2023-01-21T01:10:25.627Z,14.00
2023-01-21T01:11:25.612Z,14.60
2023-01-21T01:12:25.612Z,14.00
2023-01-21T01:13:25.598Z,13.40
2023-01-21T01:14:25.627Z,14.00
2023-01-21T01:15:25.594Z,13.10
2023-01-21T01:16:25.577Z,13.50
2023-01-21T01:17:25.569Z,13.50
2023-01-21T01:18:25.564Z,13.30
2023-01-21T01:19:25.599Z,13.60
2023-01-21T01:20:25.545Z,14.60
2023-01-21T01:21:25.539Z,13.50
2023-01-21T01:22:25.532Z,13.80
2023-01-21T01:23:25.529Z,13.40
2023-01-21T01:24:25.549Z,13.40
2023-01-21T01:25:25.511Z,14.20
2023-01-21T01:26:25.496Z,14.10
2023-01-21T01:27:25.492Z,14.50
2023-01-21T01:28:25.499Z,14.50
2023-01-21T01:29:25.504Z,13.70
2023-01-21T01:30:25.534Z,13.60
2023-01-21T01:31:25.483Z,15.00
2023-01-21T01:32:25.463Z,15.50
2023-01-21T01:33:25.457Z,13.90
2023-01-21T01:34:25.466Z,13.40
2023-01-21T01:35:25.443Z,12.60
2023-01-21T01:36:25.445Z,12.80
2023-01-21T01:37:25.422Z,12.80
2023-01-21T01:38:25.412Z,13.20
2023-01-21T01:39:25.441Z,12.40
2023-01-21T01:40:25.414Z,12.00
2023-01-21T01:41:25.407Z,12.70
2023-01-21T01:42:25.393Z,12.70
2023-01-21T01:43:25.388Z,12.70
2023-01-21T01:44:25.405Z,11.80
2023-01-21T01:45:25.369Z,11.80
2023-01-21T01:46:25.370Z,11.80
2023-01-21T01:47:25.357Z,12.10
2023-01-21T01:48:25.347Z,12.50
2023-01-21T01:49:25.370Z,12.00
2023-01-21T01:50:25.334Z,12.50
2023-01-21T01:51:25.332Z,12.30
2023-01-21T01:52:25.317Z,12.00
2023-01-21T01:53:25.305Z,12.00
2023-01-21T01:54:27.180Z,11.70
2023-01-21T01:55:25.303Z,11.70
2023-01-21T01:56:25.291Z,12.00
2023-01-21T01:57:25.293Z,11.30
2023-01-21T01:58:25.280Z,11.20
2023-01-21T01:59:25.292Z,10.90
2023-01-21T02:00:25.260Z,11.40
2023-01-21T02:01:25.311Z,11.70
2023-01-21T02:02:25.246Z,12.40
2023-01-21T02:03:25.252Z,11.90
2023-01-21T02:04:25.260Z,11.40
2023-01-21T02:05:25.228Z,11.60
2023-01-21T02:06:25.219Z,11.30
2023-01-21T02:07:25.212Z,12.70
2023-01-21T02:08:25.206Z,13.50
2023-01-21T02:09:25.223Z,12.70
2023-01-21T02:10:25.196Z,11.30
2023-01-21T02:11:25.185Z,12.30
2023-01-21T02:12:25.171Z,13.60
2023-01-21T02:13:25.168Z,13.60
2023-01-21T02:14:25.190Z,14.50
2023-01-21T02:15:25.154Z,15.10
2023-01-21T02:16:25.167Z,15.20
2023-01-21T02:17:25.143Z,15.30
2023-01-21T02:18:25.132Z,14.10
2023-01-21T02:19:25.158Z,14.90
2023-01-21T02:20:25.126Z,17.50
2023-01-21T02:21:25.107Z,18.60
2023-01-21T02:22:25.105Z,19.60
2023-01-21T02:23:25.097Z,19.80
2023-01-21T02:24:25.092Z,20.30
2023-01-21T02:25:25.105Z,20.10
2023-01-21T02:26:25.077Z,20.40
2023-01-21T02:27:30.812Z,20.80
2023-01-21T02:28:27.090Z,21.30
2023-01-21T02:29:25.051Z,21.60
2023-01-21T02:30:25.069Z,22.60
2023-01-21T02:31:25.052Z,22.10
2023-01-21T02:32:25.028Z,22.00
2023-01-21T02:33:25.020Z,20.20
2023-01-21T02:34:25.015Z,20.30
2023-01-21T02:35:25.045Z,20.90
2023-01-21T02:36:24.995Z,21.70
2023-01-21T02:37:25.003Z,19.80
2023-01-21T02:38:24.986Z,22.10
2023-01-21T02:39:24.977Z,19.40
2023-01-21T02:40:24.998Z,18.60
2023-01-21T02:41:24.969Z,20.60
2023-01-21T02:42:24.957Z,23.40
2023-01-21T02:43:24.951Z,17.90
2023-01-21T02:44:24.943Z,21.80
2023-01-21T02:45:24.966Z,19.60
2023-01-21T02:46:24.946Z,18.30
2023-01-21T02:47:24.923Z,20.20
2023-01-21T02:48:24.912Z,21.90
2023-01-21T02:49:24.913Z,19.00
2023-01-21T02:50:24.933Z,19.70
2023-01-21T02:51:24.893Z,17.80
2023-01-21T02:52:24.888Z,19.30
2023-01-21T02:53:24.880Z,18.70
2023-01-21T02:54:24.871Z,19.30
2023-01-21T02:55:24.901Z,21.10
2023-01-21T02:56:24.861Z,20.40
2023-01-21T02:57:24.860Z,18.80
2023-01-21T02:58:24.846Z,19.70
2023-01-21T02:59:24.841Z,19.60
2023-01-21T03:00:24.858Z,17.50
2023-01-21T03:01:24.827Z,18.50
2023-01-21T03:02:24.820Z,19.10
2023-01-21T03:03:24.830Z,18.80
2023-01-21T03:04:24.809Z,17.20
2023-01-21T03:05:24.829Z,19.70
2023-01-21T03:06:24.793Z,18.00
2023-01-21T03:07:24.782Z,18.40
2023-01-21T03:08:24.774Z,16.40
2023-01-21T03:09:24.784Z,19.00
2023-01-21T03:10:24.799Z,18.00
2023-01-21T03:11:24.748Z,17.90
2023-01-21T03:12:25.747Z,15.90
2023-01-21T03:13:24.739Z,16.20
2023-01-21T03:14:24.733Z,17.30
2023-01-21T03:15:24.727Z,16.70
2023-01-21T03:16:24.800Z,15.70
2023-01-21T03:17:24.741Z,18.50
2023-01-21T03:18:24.718Z,15.70
2023-01-21T03:19:24.705Z,15.00
2023-01-21T03:20:24.719Z,14.50
2023-01-21T03:21:24.713Z,14.00
2023-01-21T03:22:24.673Z,15.30
2023-01-21T03:23:24.670Z,13.00
2023-01-21T03:24:24.663Z,11.70
2023-01-21T03:25:24.659Z,11.70
2023-01-21T03:26:24.893Z,11.90
2023-01-21T03:27:24.636Z,11.00
2023-01-21T03:28:24.634Z,11.20
2023-01-21T03:29:24.625Z,12.90
2023-01-21T03:30:24.611Z,11.00
2023-01-21T03:31:25.696Z,11.90
2023-01-21T03:32:24.603Z,12.30
2023-01-21T03:33:24.632Z,10.50
2023-01-21T03:34:24.605Z,11.50
2023-01-21T03:35:24.581Z,11.60
2023-01-21T03:36:24.603Z,11.50
2023-01-21T03:37:24.589Z,11.70
2023-01-21T03:38:24.562Z,11.60
2023-01-21T03:39:24.554Z,10.70
2023-01-21T03:40:24.547Z,10.50
2023-01-21T03:41:24.549Z,11.20
2023-01-21T03:42:24.559Z,10.90
2023-01-21T03:43:24.526Z,10.30
2023-01-21T03:44:24.525Z,10.10
2023-01-21T03:45:24.599Z,9.50
2023-01-21T03:46:24.504Z,10.00
2023-01-21T03:47:24.529Z,9.30
2023-01-21T03:48:24.496Z,9.40
2023-01-21T03:49:24.482Z,9.80
2023-01-21T03:50:24.473Z,8.40
2023-01-21T03:51:24.468Z,7.80
2023-01-21T03:52:24.488Z,8.80
2023-01-21T03:53:24.455Z,9.00
2023-01-21T03:54:24.450Z,8.80
2023-01-21T03:55:24.444Z,9.20
2023-01-21T03:56:24.436Z,8.80
2023-01-21T03:57:24.465Z,8.50
2023-01-21T03:58:24.423Z,8.70
2023-01-21T03:59:24.421Z,9.10
2023-01-21T04:00:24.404Z,8.70
2023-01-21T04:01:24.402Z,9.80
2023-01-21T04:02:24.478Z,8.50
2023-01-21T04:03:24.386Z,8.50
2023-01-21T04:04:24.385Z,8.50
2023-01-21T04:05:24.375Z,8.40
2023-01-21T04:06:24.362Z,8.40
2023-01-21T04:07:24.385Z,8.20
2023-01-21T04:08:24.352Z,8.10
2023-01-21T04:09:24.339Z,8.20
2023-01-21T04:10:24.361Z,7.40
2023-01-21T04:11:24.336Z,8.10
2023-01-21T04:12:24.341Z,8.30
2023-01-21T04:13:24.318Z,8.70
2023-01-21T04:14:24.308Z,8.20
2023-01-21T04:15:24.302Z,7.80
2023-01-21T04:16:24.377Z,8.70
2023-01-21T04:17:24.325Z,8.00
2023-01-21T04:18:24.280Z,9.50
2023-01-21T04:19:24.267Z,8.00
2023-01-21T04:20:24.267Z,8.40
2023-01-21T04:21:24.257Z,7.50
2023-01-21T04:22:24.285Z,8.30
2023-01-21T04:23:24.247Z,7.90
2023-01-21T04:24:24.237Z,8.80
2023-01-21T04:25:24.232Z,8.30
2023-01-21T04:26:24.221Z,8.40
2023-01-21T04:27:24.248Z,8.80
2023-01-21T04:28:24.208Z,7.60
2023-01-21T04:29:24.203Z,8.10
2023-01-21T04:30:24.193Z,8.10
2023-01-21T04:31:24.210Z,8.90
2023-01-21T04:32:24.184Z,8.60
2023-01-21T04:33:24.200Z,8.00
2023-01-21T04:34:24.172Z,8.00
2023-01-21T04:35:24.168Z,8.70
2023-01-21T04:36:24.155Z,8.10
2023-01-21T04:37:24.151Z,9.00
2023-01-21T04:38:24.165Z,8.70
2023-01-21T04:39:24.137Z,10.10
2023-01-21T04:40:24.122Z,11.60
2023-01-21T04:41:25.538Z,11.80
2023-01-21T04:42:25.121Z,11.90
2023-01-21T04:43:24.143Z,11.80
2023-01-21T04:44:24.090Z,12.40
2023-01-21T04:45:24.087Z,12.50
2023-01-21T04:46:24.080Z,12.00
2023-01-21T04:47:24.079Z,11.90
2023-01-21T04:48:24.092Z,12.90
2023-01-21T04:49:24.057Z,12.80
2023-01-21T04:50:24.051Z,12.70
2023-01-21T04:51:24.054Z,12.70
2023-01-21T04:52:24.041Z,12.80
2023-01-21T04:53:24.067Z,12.20
2023-01-21T04:54:24.026Z,12.60
2023-01-21T04:55:26.234Z,11.90
2023-01-21T04:56:25.010Z,12.60
2023-01-21T04:57:24.004Z,13.10
2023-01-21T04:58:24.017Z,14.00
2023-01-21T04:59:23.986Z,12.20
2023-01-21T05:00:23.979Z,12.30
2023-01-21T05:01:24.117Z,13.00
2023-01-21T05:02:23.988Z,12.30
2023-01-21T05:03:23.986Z,12.90
2023-01-21T05:04:23.973Z,13.30
2023-01-21T05:05:23.943Z,13.40
2023-01-21T05:06:23.992Z,12.80
2023-01-21T05:07:23.924Z,12.10
2023-01-21T05:08:23.968Z,13.00
2023-01-21T05:09:23.948Z,13.00
2023-01-21T05:10:23.907Z,13.50
2023-01-21T05:11:23.955Z,13.00
2023-01-21T05:12:23.891Z,12.90
2023-01-21T05:13:23.920Z,12.50
2023-01-21T05:14:23.878Z,12.90
2023-01-21T05:15:23.867Z,13.90
2023-01-21T05:16:23.909Z,13.10
2023-01-21T05:17:23.860Z,13.50
2023-01-21T05:18:23.880Z,14.60
2023-01-21T05:19:23.852Z,13.80
2023-01-21T05:20:23.834Z,13.10
2023-01-21T05:21:23.825Z,13.20
2023-01-21T05:22:23.817Z,13.30
2023-01-21T05:23:23.877Z,12.80
2023-01-21T05:24:23.813Z,13.80
2023-01-21T05:25:23.797Z,13.70
2023-01-21T05:26:23.791Z,13.10
2023-01-21T05:27:23.783Z,13.10
2023-01-21T05:28:23.803Z,13.70
2023-01-21T05:29:23.766Z,13.20
2023-01-21T05:30:23.774Z,12.60
2023-01-21T05:31:23.848Z,14.30
2023-01-21T05:32:23.750Z,13.20
2023-01-21T05:33:23.737Z,12.90
2023-01-21T05:34:23.760Z,12.80
2023-01-21T05:35:23.739Z,13.00
2023-01-21T05:36:23.735Z,13.80
2023-01-21T05:37:23.714Z,13.10
2023-01-21T05:38:23.704Z,13.70
2023-01-21T05:39:23.724Z,13.50
2023-01-21T05:40:23.696Z,14.10
2023-01-21T05:41:23.687Z,13.10
2023-01-21T05:42:23.680Z,15.10
2023-01-21T05:43:23.667Z,13.30
2023-01-21T05:44:23.682Z,13.50
2023-01-21T05:45:23.656Z,14.10
2023-01-21T05:46:23.685Z,15.10
2023-01-21T05:47:23.632Z,14.90
2023-01-21T05:48:23.624Z,15.30
2023-01-21T05:49:23.647Z,14.90
2023-01-21T05:50:23.612Z,15.00
2023-01-21T05:51:23.634Z,15.00
2023-01-21T05:52:23.594Z,14.20
2023-01-21T05:53:23.588Z,14.90
2023-01-21T05:54:23.619Z,14.50
2023-01-21T05:55:23.573Z,15.20
2023-01-21T05:56:23.567Z,15.10
2023-01-21T05:57:23.562Z,17.40
2023-01-21T05:58:23.563Z,15.20
2023-01-21T05:59:23.573Z,16.00
2023-01-21T06:00:23.549Z,16.40
2023-01-21T06:01:23.533Z,16.00
2023-01-21T06:02:23.589Z,15.20
2023-01-21T06:03:23.531Z,15.10
2023-01-21T06:04:24.041Z,15.90
2023-01-21T06:05:24.504Z,16.20
2023-01-21T06:06:23.505Z,16.40
2023-01-21T06:07:23.492Z,16.30
2023-01-21T06:08:23.498Z,15.70
2023-01-21T06:09:23.502Z,15.90
2023-01-21T06:10:23.468Z,15.90
2023-01-21T06:11:23.461Z,16.10
2023-01-21T06:12:24.851Z,16.10
2023-01-21T06:13:24.444Z,16.10
2023-01-21T06:14:23.463Z,15.70
2023-01-21T06:15:23.435Z,16.90
2023-01-21T06:16:23.423Z,15.60
2023-01-21T06:17:23.417Z,16.10
2023-01-21T06:18:23.415Z,16.40
2023-01-21T06:19:23.435Z,15.90
2023-01-21T06:20:23.394Z,16.10
2023-01-21T06:21:23.382Z,15.60
2023-01-21T06:22:23.384Z,15.90
2023-01-21T06:23:23.385Z,15.70
2023-01-21T06:24:23.396Z,16.00
2023-01-21T06:25:23.360Z,16.00
2023-01-21T06:26:23.853Z,15.90
2023-01-21T06:27:23.346Z,15.60
2023-01-21T06:28:23.331Z,16.30
2023-01-21T06:29:23.354Z,16.20
2023-01-21T06:30:23.321Z,16.40
2023-01-21T06:31:23.361Z,15.30
2023-01-21T06:32:23.302Z,16.60
2023-01-21T06:33:23.299Z,15.60
2023-01-21T06:34:23.291Z,15.40
2023-01-21T06:35:23.307Z,16.40
2023-01-21T06:36:23.275Z,15.70
2023-01-21T06:37:23.267Z,15.90
2023-01-21T06:38:23.253Z,16.80
2023-01-21T06:39:24.254Z,17.00
2023-01-21T06:40:23.267Z,16.20
2023-01-21T06:41:24.242Z,17.10
2023-01-21T06:42:23.232Z,16.80
2023-01-21T06:43:23.223Z,16.10
2023-01-21T06:44:23.210Z,16.30
2023-01-21T06:45:23.234Z,16.70
2023-01-21T06:46:23.261Z,16.40
2023-01-21T06:47:23.193Z,16.50
2023-01-21T06:48:23.186Z,15.60
2023-01-21T06:49:23.177Z,16.50
2023-01-21T06:50:23.201Z,17.00
2023-01-21T06:51:23.194Z,15.90
2023-01-21T06:52:23.151Z,16.00
2023-01-21T06:53:23.153Z,16.00
2023-01-21T06:54:23.137Z,15.80
2023-01-21T06:55:23.154Z,16.20
2023-01-21T06:56:23.125Z,15.60
2023-01-21T06:57:23.118Z,16.30
2023-01-21T06:58:23.110Z,15.60
2023-01-21T06:59:23.110Z,16.80
2023-01-21T07:00:23.118Z,15.60
2023-01-21T07:01:23.146Z,15.60
2023-01-21T07:02:23.141Z,15.60
2023-01-21T07:03:23.081Z,14.90
2023-01-21T07:04:23.069Z,15.60
2023-01-21T07:05:23.091Z,15.10
2023-01-21T07:06:23.057Z,15.00
2023-01-21T07:07:23.050Z,16.40
2023-01-21T07:08:23.043Z,16.30
2023-01-21T07:09:23.035Z,16.10
2023-01-21T07:10:23.054Z,15.60
2023-01-21T07:11:23.017Z,16.20
2023-01-21T07:12:23.013Z,15.70
2023-01-21T07:13:23.002Z,16.10
2023-01-21T07:14:23.000Z,16.40
2023-01-21T07:15:23.016Z,16.40
2023-01-21T07:16:23.071Z,16.40
2023-01-21T07:17:22.976Z,16.80
2023-01-21T07:18:22.993Z,15.60
2023-01-21T07:19:22.966Z,17.20
2023-01-21T07:20:22.982Z,16.60
2023-01-21T07:21:22.966Z,15.90
2023-01-21T07:22:22.941Z,16.70
2023-01-21T07:23:22.956Z,16.80
2023-01-21T07:24:22.929Z,15.50
2023-01-21T07:25:22.950Z,16.30
2023-01-21T07:26:22.917Z,15.80
2023-01-21T07:27:22.913Z,16.30
2023-01-21T07:28:22.903Z,16.30
2023-01-21T07:29:22.898Z,15.00
2023-01-21T07:30:22.914Z,15.60
2023-01-21T07:31:22.971Z,15.60
2023-01-21T07:32:22.875Z,15.90
2023-01-21T07:33:22.866Z,15.80
2023-01-21T07:34:22.859Z,16.10
2023-01-21T07:35:22.876Z,16.20
2023-01-21T07:36:22.848Z,15.90
2023-01-21T07:37:22.838Z,16.90
2023-01-21T07:38:22.837Z,16.80
2023-01-21T07:39:22.827Z,16.50
2023-01-21T07:40:22.846Z,15.80
2023-01-21T07:41:22.809Z,16.90
2023-01-21T07:42:22.809Z,16.20
2023-01-21T07:43:22.792Z,16.70
2023-01-21T07:44:22.793Z,16.20
2023-01-21T07:45:22.803Z,16.60
2023-01-21T07:46:22.785Z,17.20
2023-01-21T07:47:22.763Z,16.00
2023-01-21T07:48:22.755Z,16.00
2023-01-21T07:49:22.759Z,16.60
2023-01-21T07:50:22.773Z,16.60
2023-01-21T07:51:22.902Z,16.00
2023-01-21T07:52:22.729Z,15.00
2023-01-21T07:53:22.721Z,16.00
2023-01-21T07:54:22.711Z,16.00
2023-01-21T07:55:22.728Z,16.30
2023-01-21T07:56:22.694Z,16.00
2023-01-21T07:57:22.692Z,16.60
2023-01-21T07:58:22.696Z,16.20
2023-01-21T07:59:22.673Z,15.90
2023-01-21T08:00:22.688Z,16.40
2023-01-21T08:01:25.183Z,16.40
2023-01-21T08:02:23.757Z,15.80
2023-01-21T08:03:22.648Z,16.10
2023-01-21T08:04:22.645Z,16.70
2023-01-21T08:05:22.655Z,16.20
2023-01-21T08:06:22.628Z,17.10
2023-01-21T08:07:22.619Z,16.60
2023-01-21T08:08:22.611Z,17.20
2023-01-21T08:09:22.612Z,17.10
2023-01-21T08:10:22.656Z,17.40
2023-01-21T08:11:22.599Z,17.40
2023-01-21T08:12:22.583Z,17.00
2023-01-21T08:13:22.580Z,16.30
2023-01-21T08:14:22.573Z,17.20
2023-01-21T08:15:22.592Z,16.70
2023-01-21T08:16:22.613Z,15.90
2023-01-21T08:17:22.550Z,16.90
2023-01-21T08:18:22.561Z,16.10
2023-01-21T08:19:22.540Z,15.90
2023-01-21T08:20:22.570Z,15.80
2023-01-21T08:21:22.526Z,16.50
2023-01-21T08:22:22.512Z,17.10
2023-01-21T08:23:22.504Z,17.10
2023-01-21T08:24:22.509Z,15.60
2023-01-21T08:25:22.518Z,16.60
2023-01-21T08:26:25.459Z,16.50
2023-01-21T08:27:22.478Z,15.70
2023-01-21T08:28:22.468Z,16.50
2023-01-21T08:29:22.465Z,17.00
2023-01-21T08:30:22.453Z,15.70
2023-01-21T08:31:22.568Z,16.20
2023-01-21T08:32:22.447Z,15.70
2023-01-21T08:33:22.427Z,16.20
2023-01-21T08:34:22.432Z,16.20
2023-01-21T08:35:22.414Z,16.90
2023-01-21T08:36:22.436Z,17.40
2023-01-21T08:37:22.406Z,18.00
2023-01-21T08:38:22.395Z,16.40
2023-01-21T08:39:22.389Z,16.70
2023-01-21T08:40:22.377Z,17.40
2023-01-21T08:41:22.400Z,17.60
2023-01-21T08:42:22.365Z,17.50
2023-01-21T08:43:22.359Z,17.30
2023-01-21T08:44:22.354Z,18.60
2023-01-21T08:45:22.345Z,17.30
2023-01-21T08:46:22.371Z,16.90
2023-01-21T08:47:22.341Z,18.20
2023-01-21T08:48:22.330Z,16.80
2023-01-21T08:49:22.321Z,16.80
2023-01-21T08:50:22.302Z,17.20
2023-01-21T08:51:22.362Z,18.10
2023-01-21T08:52:22.300Z,17.20
2023-01-21T08:53:22.306Z,17.70
2023-01-21T08:54:22.283Z,18.00
2023-01-21T08:55:22.280Z,17.10
2023-01-21T08:56:22.294Z,17.10
2023-01-21T08:57:22.264Z,17.30
2023-01-21T08:58:22.258Z,17.60
2023-01-21T08:59:22.242Z,18.20
2023-01-21T09:00:22.293Z,16.90
2023-01-21T09:01:22.342Z,17.20
2023-01-21T09:02:22.273Z,17.30
2023-01-21T09:03:22.215Z,16.50
2023-01-21T09:04:22.218Z,16.70
2023-01-21T09:05:22.205Z,16.80
2023-01-21T09:06:22.224Z,17.90
2023-01-21T09:07:22.195Z,16.30
2023-01-21T09:08:22.178Z,16.50
2023-01-21T09:09:23.177Z,16.10
2023-01-21T09:10:22.164Z,16.10
2023-01-21T09:11:22.187Z,16.70
2023-01-21T09:12:22.154Z,14.90
2023-01-21T09:13:22.153Z,15.50
2023-01-21T09:14:22.137Z,15.90
2023-01-21T09:15:22.130Z,15.90
2023-01-21T09:16:22.212Z,15.50
2023-01-21T09:17:22.119Z,15.80
2023-01-21T09:18:22.105Z,15.30
2023-01-21T09:19:22.104Z,15.50
2023-01-21T09:20:22.100Z,14.80
2023-01-21T09:21:22.114Z,14.10
2023-01-21T09:22:22.089Z,14.60
2023-01-21T09:23:22.076Z,14.00
2023-01-21T09:24:23.068Z,14.80
2023-01-21T09:25:23.360Z,14.40
2023-01-21T09:26:23.080Z,16.80
2023-01-21T09:27:22.053Z,15.30
2023-01-21T09:28:22.043Z,17.50
2023-01-21T09:29:22.042Z,17.60
2023-01-21T09:30:22.020Z,17.00
2023-01-21T09:31:22.059Z,17.10
2023-01-21T09:32:23.011Z,17.30
2023-01-21T09:33:21.997Z,18.10
2023-01-21T09:34:21.993Z,16.40
2023-01-21T09:35:21.987Z,18.10
2023-01-21T09:36:22.034Z,17.60
2023-01-21T09:37:21.977Z,18.40
2023-01-21T09:38:21.984Z,18.10
2023-01-21T09:39:21.958Z,17.30
2023-01-21T09:40:21.953Z,17.30
2023-01-21T09:41:21.969Z,17.70
2023-01-21T09:42:21.939Z,16.80
2023-01-21T09:43:21.922Z,17.60
2023-01-21T09:44:21.937Z,17.30
2023-01-21T09:45:21.912Z,17.80
2023-01-21T09:46:21.929Z,17.20
2023-01-21T09:47:21.899Z,17.60
2023-01-21T09:48:21.889Z,16.60
2023-01-21T09:49:21.891Z,15.60
2023-01-21T09:50:21.892Z,16.30
2023-01-21T09:51:21.897Z,16.90
2023-01-21T09:52:21.867Z,17.00
2023-01-21T09:53:21.856Z,16.00
2023-01-21T09:54:21.847Z,15.50
2023-01-21T09:55:21.841Z,15.60
2023-01-21T09:56:21.862Z,16.50
2023-01-21T09:57:21.824Z,16.10
2023-01-21T09:58:21.823Z,15.10
2023-01-21T09:59:21.805Z,15.60
2023-01-21T10:00:21.796Z,14.10
2023-01-21T10:01:22.887Z,12.40
2023-01-21T10:02:21.785Z,12.30
2023-01-21T10:03:21.778Z,15.10
2023-01-21T10:04:21.786Z,14.30
2023-01-21T10:05:21.769Z,14.60
2023-01-21T10:06:21.804Z,12.50
2023-01-21T10:07:21.750Z,13.90
2023-01-21T10:08:21.741Z,12.10
2023-01-21T10:09:21.737Z,12.20
2023-01-21T10:10:21.731Z,10.70
2023-01-21T10:11:21.714Z,11.10
2023-01-21T10:12:21.739Z,10.00
2023-01-21T10:13:21.703Z,9.10
2023-01-21T10:14:21.705Z,9.20
2023-01-21T10:15:21.698Z,7.70
2023-01-21T10:16:21.710Z,8.70
2023-01-21T10:17:21.719Z,7.80
2023-01-21T10:18:21.669Z,8.40
2023-01-21T10:19:21.663Z,8.50
2023-01-21T10:20:21.652Z,9.20
2023-01-21T10:21:21.648Z,9.40
2023-01-21T10:22:21.679Z,10.90
2023-01-21T10:23:21.637Z,8.40
2023-01-21T10:24:21.632Z,9.50
2023-01-21T10:25:21.662Z,8.50
2023-01-21T10:26:21.611Z,8.10
2023-01-21T10:27:21.630Z,7.90
2023-01-21T10:28:21.640Z,7.80
2023-01-21T10:29:22.591Z,7.90
2023-01-21T10:30:21.585Z,6.40
2023-01-21T10:31:21.727Z,6.80
2023-01-21T10:32:21.591Z,6.90
2023-01-21T10:33:21.557Z,7.30
2023-01-21T10:34:21.547Z,7.40
2023-01-21T10:35:21.543Z,6.40
2023-01-21T10:36:21.540Z,6.00
2023-01-21T10:37:21.558Z,5.70
2023-01-21T10:38:21.522Z,7.60
2023-01-21T10:39:21.518Z,7.20
2023-01-21T10:40:21.506Z,7.50
2023-01-21T10:41:21.529Z,7.00
2023-01-21T10:42:21.521Z,7.50
2023-01-21T10:43:21.488Z,7.10
2023-01-21T10:44:21.473Z,7.00
2023-01-21T10:45:21.478Z,6.80
2023-01-21T10:46:21.503Z,7.10
2023-01-21T10:47:21.511Z,6.70
2023-01-21T10:48:21.449Z,6.30
2023-01-21T10:49:21.628Z,6.70
2023-01-21T10:50:21.585Z,6.30
2023-01-21T10:51:21.741Z,6.50
2023-01-21T10:52:21.451Z,7.00
2023-01-21T10:53:21.421Z,6.40
2023-01-21T10:54:22.668Z,6.90
2023-01-21T10:55:22.399Z,6.70
2023-01-21T10:56:21.395Z,6.80
2023-01-21T10:57:21.417Z,7.00
2023-01-21T10:58:21.386Z,5.90
2023-01-21T10:59:21.367Z,6.50
2023-01-21T11:00:21.366Z,6.00
2023-01-21T11:01:21.392Z,6.20
2023-01-21T11:02:21.386Z,7.10
2023-01-21T11:03:21.350Z,6.40
2023-01-21T11:04:21.337Z,6.50
2023-01-21T11:05:21.334Z,6.50
2023-01-21T11:06:21.383Z,6.50
2023-01-21T11:07:21.451Z,6.20
2023-01-21T11:08:21.331Z,6.00
2023-01-21T11:09:21.308Z,6.00
2023-01-21T11:10:21.396Z,6.40
2023-01-21T11:11:21.399Z,6.50
2023-01-21T11:12:21.501Z,6.20
2023-01-21T11:13:21.267Z,5.70
2023-01-21T11:14:21.336Z,5.90
2023-01-21T11:15:22.261Z,5.80
2023-01-21T11:16:21.249Z,6.30
2023-01-21T11:17:21.272Z,6.20
2023-01-21T11:18:21.232Z,6.00
2023-01-21T11:19:21.223Z,5.40
2023-01-21T11:20:21.919Z,6.10
2023-01-21T11:21:22.213Z,6.50
2023-01-21T11:22:21.230Z,6.10
2023-01-21T11:23:21.198Z,6.30
2023-01-21T11:24:21.191Z,5.60
2023-01-21T11:25:21.184Z,5.80
2023-01-21T11:26:21.173Z,5.70
2023-01-21T11:27:21.204Z,6.10
2023-01-21T11:28:21.186Z,5.50
2023-01-21T11:29:21.156Z,5.30
2023-01-21T11:30:44.207Z,5.80
2023-01-21T11:31:23.183Z,6.00
2023-01-21T11:32:21.288Z,6.30
2023-01-21T11:33:21.155Z,6.10
2023-01-21T11:34:21.129Z,6.10
2023-01-21T11:35:21.113Z,5.40
2023-01-21T11:36:21.112Z,5.50
2023-01-21T11:37:21.127Z,5.90
2023-01-21T11:38:21.091Z,6.10
2023-01-21T11:39:21.081Z,5.70
2023-01-21T11:40:21.388Z,6.20
2023-01-21T11:41:22.084Z,5.20
2023-01-21T11:42:21.104Z,6.10
2023-01-21T11:43:21.056Z,5.20
2023-01-21T11:44:21.052Z,5.30
2023-01-21T11:45:21.086Z,5.00
2023-01-21T11:46:21.081Z,5.90
2023-01-21T11:47:22.085Z,5.40
2023-01-21T11:48:21.077Z,6.80
2023-01-21T11:49:21.106Z,5.60
2023-01-21T11:50:21.189Z,5.40
2023-01-21T11:51:21.041Z,5.70
2023-01-21T11:52:21.018Z,5.20
2023-01-21T11:53:20.986Z,5.70
2023-01-21T11:54:20.979Z,5.00
2023-01-21T11:55:21.043Z,5.70
2023-01-21T11:56:21.043Z,5.50
2023-01-21T11:57:20.973Z,5.50
2023-01-21T11:58:20.964Z,5.50
2023-01-21T11:59:20.978Z,5.40
2023-01-21T12:00:20.966Z,5.40
2023-01-21T12:01:20.935Z,5.60
2023-01-21T12:02:20.981Z,5.30
2023-01-21T12:03:20.936Z,5.70
2023-01-21T12:04:20.895Z,5.50
2023-01-21T12:05:20.893Z,5.90
2023-01-21T12:06:20.885Z,5.50
2023-01-21T12:07:20.877Z,5.50
2023-01-21T12:08:20.917Z,6.10
2023-01-21T12:09:20.873Z,5.50
2023-01-21T12:10:20.856Z,5.30
2023-01-21T12:11:20.843Z,5.60
2023-01-21T12:12:20.839Z,5.70
2023-01-21T12:13:20.861Z,5.90
2023-01-21T12:14:20.819Z,6.00
2023-01-21T12:15:20.814Z,6.00
2023-01-21T12:16:20.856Z,6.00
2023-01-21T12:17:20.794Z,5.70
2023-01-21T12:18:20.819Z,5.90
2023-01-21T12:19:20.786Z,5.70
2023-01-21T12:20:20.785Z,6.30
2023-01-21T12:21:20.767Z,6.70
2023-01-21T12:22:20.765Z,6.50
2023-01-21T12:23:20.777Z,6.10
2023-01-21T12:24:20.742Z,6.50
2023-01-21T12:25:20.740Z,6.10
2023-01-21T12:26:20.734Z,6.00
2023-01-21T12:27:20.722Z,6.80
2023-01-21T12:28:20.743Z,6.60
2023-01-21T12:29:20.832Z,6.50
2023-01-21T12:30:20.704Z,6.50
2023-01-21T12:31:20.798Z,6.80
2023-01-21T12:32:23.582Z,6.70
2023-01-21T12:33:20.702Z,6.60
2023-01-21T12:34:20.672Z,7.00
2023-01-21T12:35:20.661Z,6.30
2023-01-21T12:36:20.660Z,6.60
2023-01-21T12:37:20.655Z,6.70
2023-01-21T12:38:20.663Z,6.10
2023-01-21T12:39:20.634Z,6.40
2023-01-21T12:40:20.631Z,6.10
2023-01-21T12:41:20.623Z,6.00
2023-01-21T12:42:20.643Z,6.30
2023-01-21T12:43:20.631Z,6.00
2023-01-21T12:44:20.599Z,6.70
2023-01-21T12:45:20.597Z,6.50
2023-01-21T12:46:20.692Z,6.50
2023-01-21T12:47:20.583Z,6.40
2023-01-21T12:48:20.600Z,6.50
2023-01-21T12:49:20.565Z,5.70
2023-01-21T12:50:20.558Z,6.10
2023-01-21T12:51:20.605Z,6.40
2023-01-21T12:52:20.544Z,6.50
2023-01-21T12:53:20.570Z,7.20
2023-01-21T12:54:20.534Z,6.30
2023-01-21T12:55:20.799Z,6.30
2023-01-21T12:56:20.711Z,6.70
2023-01-21T12:57:20.507Z,7.30
2023-01-21T12:58:20.533Z,7.20
2023-01-21T12:59:20.491Z,7.60